Time;durP1;ratioP1;P1;durP2;ratioP2;P2;SDS_P1;SDS_P2;PMS_P1;PMS_P2;Temp;Humidity;BMP_temperature;BMP_pressure;BME280_temperature;BME280_humidity;BME280_pressure;Samples;Min_cycle;Max_cycle;Signal;HPM_P1;HPM_P2
2022/03/03 00:01:52;;;;;;;99.45;44.58;;;1.30;99.90;;;;;;5085155;27;20039;-81
2022/03/03 00:04:18;;;;;;;88.95;40.10;;;1.30;99.90;;;;;;5098297;27;20049;-80
2022/03/03 00:06:44;;;;;;;88.95;40.90;;;1.40;99.90;;;;;;5120321;27;20067;-81
2022/03/03 00:09:10;;;;;;;90.75;42.45;;;1.30;99.90;;;;;;5104659;27;20035;-81
2022/03/03 00:11:38;;;;;;;84.72;39.30;;;1.30;99.90;;;;;;5104678;27;20031;-81
2022/03/03 00:14:04;;;;;;;93.82;41.53;;;1.30;99.90;;;;;;5105973;27;20100;-80
2022/03/03 00:16:30;;;;;;;107.63;46.72;;;1.30;99.90;;;;;;5124048;27;20053;-81
2022/03/03 00:18:56;;;;;;;90.45;40.85;;;1.30;99.90;;;;;;5123628;27;20042;-80
2022/03/03 00:21:22;;;;;;;92.30;41.63;;;1.30;99.90;;;;;;5105700;27;20479;-81
2022/03/03 00:23:47;;;;;;;89.30;39.30;;;1.30;99.90;;;;;;5116499;27;20503;-80
2022/03/03 00:26:13;;;;;;;92.53;40.38;;;1.30;99.90;;;;;;5089727;27;20035;-80
2022/03/03 00:28:39;;;;;;;86.78;39.78;;;1.20;99.90;;;;;;5106657;27;20039;-81
2022/03/03 00:31:06;;;;;;;81.88;37.30;;;1.20;99.90;;;;;;5122979;27;20043;-81
2022/03/03 00:33:31;;;;;;;84.75;39.50;;;1.20;99.90;;;;;;5120324;27;20070;-81
2022/03/03 00:35:57;;;;;;;90.30;38.55;;;1.50;99.90;;;;;;5103776;27;20050;-80
2022/03/03 00:38:23;;;;;;;83.15;38.88;;;1.20;99.90;;;;;;5103091;27;20055;-81
2022/03/03 00:40:48;;;;;;;83.50;36.90;;;1.20;99.90;;;;;;5091150;27;20057;-81
2022/03/03 00:43:14;;;;;;;86.55;38.15;;;1.10;99.90;;;;;;5103666;27;20081;-81
2022/03/03 00:45:39;;;;;;;83.47;37.30;;;0.90;99.90;;;;;;5087612;27;20626;-82
2022/03/03 00:48:06;;;;;;;82.85;37.90;;;0.90;99.90;;;;;;5093352;27;20058;-81
2022/03/03 00:50:32;;;;;;;85.45;38.17;;;2.40;99.90;;;;;;5096604;27;20139;-81
2022/03/03 00:52:58;;;;;;;76.57;36.78;;;1.00;99.90;;;;;;5111686;27;20091;-81
2022/03/03 00:55:24;;;;;;;76.50;38.05;;;1.00;99.90;;;;;;5108349;27;20050;-81
2022/03/03 00:57:50;;;;;;;78.13;36.33;;;1.00;99.90;;;;;;5117681;27;20046;-82
2022/03/03 01:00:18;;;;;;;78.40;35.33;;;0.90;99.90;;;;;;5119441;27;20074;-81
2022/03/03 01:02:48;;;;;;;72.43;34.60;;;1.00;99.90;;;;;;5120389;27;20042;-81
2022/03/03 01:05:13;;;;;;;75.60;35.42;;;0.90;99.90;;;;;;5104900;27;20069;-81
2022/03/03 01:07:39;;;;;;;74.20;33.78;;;0.90;99.90;;;;;;5121272;27;20058;-81
2022/03/03 01:10:08;;;;;;;79.47;35.65;;;0.90;99.90;;;;;;5123414;27;20041;-81
2022/03/03 01:12:34;;;;;;;78.55;37.13;;;0.80;99.90;;;;;;5123734;27;20043;-81
2022/03/03 01:14:59;;;;;;;79.85;37.42;;;0.80;99.90;;;;;;5124970;27;20067;-80
2022/03/03 01:17:25;;;;;;;80.07;37.92;;;0.80;99.90;;;;;;5113413;27;20357;-80
2022/03/03 01:19:51;;;;;;;85.90;38.35;;;0.80;99.90;;;;;;5122389;27;20061;-81
2022/03/03 01:22:16;;;;;;;79.22;36.50;;;0.70;99.90;;;;;;5125035;27;20569;-80
2022/03/03 01:24:45;;;;;;;78.88;35.75;;;0.70;99.90;;;;;;5131741;27;20522;-80
2022/03/03 01:27:12;;;;;;;79.43;37.28;;;0.70;99.90;;;;;;5113386;27;20105;-80
2022/03/03 01:29:38;;;;;;;78.20;36.17;;;0.70;99.90;;;;;;5115332;27;20456;-81
2022/03/03 01:32:07;;;;;;;81.72;36.72;;;0.70;99.90;;;;;;5118128;27;20098;-81
2022/03/03 01:34:33;;;;;;;79.25;36.95;;;0.60;99.90;;;;;;5117918;27;20038;-81
2022/03/03 01:36:59;;;;;;;76.82;36.85;;;0.60;99.90;;;;;;5117154;27;20083;-81
2022/03/03 01:39:25;;;;;;;75.25;35.17;;;0.60;99.90;;;;;;5132285;27;20126;-81
2022/03/03 01:41:52;;;;;;;79.05;36.50;;;0.60;99.90;;;;;;5116896;27;20041;-81
2022/03/03 01:44:18;;;;;;;83.07;36.75;;;0.60;99.90;;;;;;5116803;27;20079;-80
2022/03/03 01:46:55;;;;;;;79.97;35.70;;;0.50;99.90;;;;;;5116612;27;20506;-81
2022/03/03 01:49:22;;;;;;;84.97;36.50;;;0.50;99.90;;;;;;5132660;27;20035;-81
2022/03/03 01:51:49;;;;;;;80.72;36.47;;;0.50;99.90;;;;;;5132682;27;20042;-81
2022/03/03 01:54:18;;;;;;;76.30;34.40;;;0.50;99.90;;;;;;5110079;27;20051;-80
2022/03/03 01:56:45;;;;;;;73.78;33.78;;;0.50;99.90;;;;;;5129571;27;20045;-80
2022/03/03 01:59:12;;;;;;;72.70;34.53;;;0.40;99.90;;;;;;5122207;27;20064;-80
2022/03/03 02:01:38;;;;;;;71.45;33.97;;;0.40;99.90;;;;;;5125790;27;20137;-81
2022/03/03 02:04:06;;;;;;;79.00;35.88;;;0.40;99.90;;;;;;5110105;27;20191;-81
2022/03/03 02:06:33;;;;;;;76.60;33.33;;;0.40;99.90;;;;;;5092005;27;20118;-81
2022/03/03 02:08:58;;;;;;;70.88;33.80;;;0.30;99.90;;;;;;5111716;27;20464;-80
2022/03/03 02:11:25;;;;;;;80.30;36.30;;;0.30;99.90;;;;;;5127786;27;20069;-81
2022/03/03 02:13:51;;;;;;;72.63;34.53;;;0.30;99.90;;;;;;5106524;27;20404;-81
2022/03/03 02:16:16;;;;;;;73.72;34.85;;;0.30;99.90;;;;;;5113186;27;20072;-81
2022/03/03 02:18:43;;;;;;;78.72;35.67;;;0.30;99.90;;;;;;5110566;27;20054;-82
2022/03/03 02:21:13;;;;;;;71.57;33.80;;;0.30;99.90;;;;;;5108624;27;20403;-81
2022/03/03 02:23:40;;;;;;;75.90;35.30;;;0.30;99.90;;;;;;5109916;27;20042;-81
2022/03/03 02:26:11;;;;;;;77.22;33.72;;;0.30;99.90;;;;;;5105762;27;20451;-81
2022/03/03 02:28:39;;;;;;;70.68;34.15;;;0.20;99.90;;;;;;5126795;27;20878;-81
2022/03/03 02:31:05;;;;;;;73.60;34.03;;;0.20;99.90;;;;;;5130207;27;20042;-81
2022/03/03 02:33:30;;;;;;;78.70;35.42;;;0.20;99.90;;;;;;5107060;27;20491;-81
2022/03/03 02:35:57;;;;;;;74.38;34.60;;;0.10;99.90;;;;;;5113438;27;20039;-81
2022/03/03 02:38:23;;;;;;;72.43;34.08;;;0.10;99.90;;;;;;5109817;27;20141;-81
2022/03/03 02:40:48;;;;;;;77.40;34.15;;;0.10;99.90;;;;;;5125709;27;20117;-81
2022/03/03 02:43:14;;;;;;;70.60;33.67;;;0.00;99.90;;;;;;5110094;27;20506;-81
2022/03/03 02:45:40;;;;;;;68.82;33.08;;;0.00;99.90;;;;;;5110289;27;20491;-81
2022/03/03 02:48:05;;;;;;;67.60;33.28;;;-0.10;99.90;;;;;;5127591;27;20069;-81
2022/03/03 02:50:31;;;;;;;69.97;30.80;;;-0.10;99.90;;;;;;5113181;27;20038;-81
2022/03/03 02:53:01;;;;;;;77.78;35.22;;;-0.80;99.90;;;;;;5128254;27;20030;-81
2022/03/03 02:55:27;;;;;;;75.65;33.33;;;-0.20;99.90;;;;;;5110184;27;20055;-81
2022/03/03 02:57:53;;;;;;;82.38;37.15;;;-0.20;99.90;;;;;;5120852;27;20054;-81
2022/03/03 03:00:23;;;;;;;82.32;37.90;;;-0.20;99.90;;;;;;5102735;27;20038;-82
2022/03/03 03:02:49;;;;;;;78.82;35.67;;;-0.20;99.90;;;;;;5122307;27;20050;-82
2022/03/03 03:05:18;;;;;;;71.00;33.38;;;-0.20;99.90;;;;;;5110512;27;20545;-82
2022/03/03 03:07:44;;;;;;;81.85;35.63;;;-0.20;99.90;;;;;;5096970;27;20200;-82
2022/03/03 03:10:10;;;;;;;79.90;35.65;;;-0.20;99.90;;;;;;5122961;27;20558;-81
2022/03/03 03:12:36;;;;;;;81.50;36.13;;;-0.20;99.90;;;;;;5121058;27;20422;-81
2022/03/03 03:15:01;;;;;;;82.13;36.47;;;-0.20;99.90;;;;;;5101820;27;20134;-81
2022/03/03 03:17:27;;;;;;;83.82;36.85;;;-0.20;99.90;;;;;;5130539;27;20057;-81
2022/03/03 03:19:53;;;;;;;78.55;35.15;;;-0.20;99.90;;;;;;5124958;27;20046;-81
2022/03/03 03:22:22;;;;;;;84.50;35.53;;;-0.20;99.90;;;;;;5105484;27;20043;-82
2022/03/03 03:24:47;;;;;;;79.65;35.72;;;-0.20;99.90;;;;;;5100868;27;20041;-81
2022/03/03 03:27:13;;;;;;;81.40;36.92;;;-0.20;99.90;;;;;;5103678;27;20038;-82
2022/03/03 03:29:39;;;;;;;80.18;36.58;;;-0.20;99.90;;;;;;5102746;27;20113;-81
2022/03/03 03:32:05;;;;;;;78.65;37.50;;;-0.20;99.90;;;;;;5130797;27;20045;-81
2022/03/03 03:34:30;;;;;;;80.80;37.88;;;-0.20;99.90;;;;;;5120998;27;20505;-81
2022/03/03 03:36:56;;;;;;;80.72;38.03;;;-0.20;99.90;;;;;;5107521;27;20058;-81
2022/03/03 03:39:22;;;;;;;81.85;36.95;;;-0.10;99.90;;;;;;5106686;27;20529;-81
2022/03/03 03:41:47;;;;;;;82.82;38.55;;;-0.10;99.90;;;;;;5106874;27;20062;-81
2022/03/03 03:44:13;;;;;;;78.90;36.65;;;-0.10;99.90;;;;;;5107739;27;20043;-81
2022/03/03 03:46:39;;;;;;;77.53;36.83;;;-0.20;99.90;;;;;;5129312;27;20039;-82
2022/03/03 03:49:05;;;;;;;79.38;34.75;;;-0.10;99.90;;;;;;5129512;27;20167;-82
2022/03/03 03:51:31;;;;;;;82.15;37.15;;;-0.10;99.90;;;;;;5105184;27;20129;-82
2022/03/03 03:53:57;;;;;;;81.03;37.63;;;-0.20;99.90;;;;;;5126306;27;20073;-82
2022/03/03 03:56:23;;;;;;;74.85;35.67;;;-0.20;99.90;;;;;;5112871;27;20383;-82
2022/03/03 03:58:50;;;;;;;72.43;34.03;;;-0.20;99.90;;;;;;5120751;27;20489;-82
2022/03/03 04:01:19;;;;;;;78.63;36.95;;;-0.20;99.90;;;;;;5108562;27;20037;-81
2022/03/03 04:03:45;;;;;;;84.05;38.00;;;-0.20;99.90;;;;;;5108063;27;20038;-82
2022/03/03 04:06:11;;;;;;;70.13;34.53;;;-0.20;99.90;;;;;;5110246;27;20051;-82
2022/03/03 04:08:36;;;;;;;72.38;35.35;;;-0.20;99.90;;;;;;5114636;27;20061;-82
2022/03/03 04:11:03;;;;;;;81.47;35.33;;;-0.20;99.90;;;;;;5142944;27;20035;-82
2022/03/03 04:13:29;;;;;;;79.32;36.60;;;-0.20;99.90;;;;;;5123369;27;20038;-82
2022/03/03 04:15:54;;;;;;;84.05;38.28;;;-0.20;99.90;;;;;;5109028;27;20046;-82
2022/03/03 04:18:20;;;;;;;75.32;35.03;;;-0.30;99.90;;;;;;5130705;27;20039;-82
2022/03/03 04:20:49;;;;;;;75.07;36.28;;;-0.30;99.90;;;;;;5112559;27;20063;-83
2022/03/03 04:23:19;;;;;;;76.05;34.65;;;-0.30;99.90;;;;;;5113308;27;20039;-83
2022/03/03 04:25:45;;;;;;;74.78;37.25;;;-0.30;99.90;;;;;;5110044;27;20650;-83
2022/03/03 04:28:11;;;;;;;79.72;35.53;;;-0.30;99.90;;;;;;5113079;27;20050;-83
2022/03/03 04:30:37;;;;;;;78.28;36.10;;;-0.20;99.90;;;;;;5127922;27;20038;-83
2022/03/03 04:33:02;;;;;;;80.65;37.70;;;-0.40;99.90;;;;;;5133242;27;20039;-82
2022/03/03 04:35:31;;;;;;;79.43;37.65;;;-0.40;99.90;;;;;;5114526;27;20038;-82
2022/03/03 04:37:57;;;;;;;80.85;37.55;;;-0.40;99.90;;;;;;5116825;27;20042;-82
2022/03/03 04:40:23;;;;;;;78.40;37.28;;;-0.30;99.90;;;;;;5116942;27;20046;-83
2022/03/03 04:42:51;;;;;;;77.90;35.45;;;-0.30;99.90;;;;;;5116347;27;20035;-83
2022/03/03 04:45:17;;;;;;;82.95;37.35;;;-0.30;99.90;;;;;;5116520;27;20043;-82
2022/03/03 04:47:44;;;;;;;73.18;35.17;;;-0.30;99.90;;;;;;5134633;27;20423;-83
2022/03/03 04:50:09;;;;;;;72.65;34.95;;;-0.30;99.90;;;;;;5134169;27;20282;-83
2022/03/03 04:52:36;;;;;;;74.57;35.35;;;-0.40;99.90;;;;;;5113390;27;20372;-82
2022/03/03 04:55:04;;;;;;;75.38;34.28;;;-0.40;99.90;;;;;;5114025;27;20388;-82
2022/03/03 04:57:31;;;;;;;76.30;35.90;;;-0.40;99.90;;;;;;5108559;27;20031;-83
2022/03/03 04:59:56;;;;;;;74.45;33.92;;;1.10;99.90;;;;;;5108322;27;20122;-83
2022/03/03 05:02:22;;;;;;;73.20;33.97;;;-0.40;99.90;;;;;;5110631;27;20149;-83
2022/03/03 05:04:48;;;;;;;74.22;34.42;;;-0.50;99.90;;;;;;5133123;27;20103;-83
2022/03/03 05:07:14;;;;;;;67.25;32.92;;;-0.50;99.90;;;;;;5116521;27;20039;-83
2022/03/03 05:09:40;;;;;;;68.78;32.58;;;-0.60;99.90;;;;;;5104617;27;20379;-83
2022/03/03 05:12:06;;;;;;;69.63;33.00;;;-0.60;99.90;;;;;;5109596;27;20075;-84
2022/03/03 05:14:32;;;;;;;71.63;33.30;;;-0.50;99.90;;;;;;5114300;27;20111;-83
2022/03/03 05:16:58;;;;;;;76.15;34.33;;;-0.60;99.90;;;;;;5115124;27;20043;-83
2022/03/03 05:19:23;;;;;;;66.43;33.10;;;-0.60;99.90;;;;;;5095210;27;20043;-83
2022/03/03 05:21:49;;;;;;;66.07;32.80;;;-0.60;99.90;;;;;;5117283;27;20047;-84
2022/03/03 05:24:18;;;;;;;71.63;33.17;;;-0.30;99.90;;;;;;5094921;27;20069;-83
2022/03/03 05:26:44;;;;;;;67.90;32.10;;;-0.60;99.90;;;;;;5111985;27;20055;-84
2022/03/03 05:29:10;;;;;;;67.32;31.63;;;-0.60;99.90;;;;;;5092746;27;20400;-84
2022/03/03 05:31:36;;;;;;;65.38;32.10;;;-0.60;99.90;;;;;;5122773;27;20058;-84
2022/03/03 05:34:03;;;;;;;63.17;31.98;;;-0.70;99.90;;;;;;5105877;27;20050;-84
2022/03/03 05:36:29;;;;;;;65.47;31.70;;;-0.50;99.90;;;;;;5094691;27;20415;-84
2022/03/03 05:38:57;;;;;;;63.15;30.27;;;-0.70;99.90;;;;;;5095436;27;20497;-84
2022/03/03 05:41:23;;;;;;;66.80;32.47;;;-0.80;99.90;;;;;;5086863;27;20036;-84
2022/03/03 05:43:50;;;;;;;66.82;30.95;;;-0.70;99.90;;;;;;5109656;27;20051;-84
2022/03/03 05:46:19;;;;;;;62.67;30.15;;;-0.90;99.90;;;;;;5075852;27;20407;-83
2022/03/03 05:48:48;;;;;;;62.60;30.83;;;-2.00;99.90;;;;;;5082010;27;20099;-84
2022/03/03 05:51:13;;;;;;;61.10;30.08;;;-1.20;99.90;;;;;;5110319;27;20039;-84
2022/03/03 05:53:39;;;;;;;62.65;31.42;;;-0.80;99.90;;;;;;5085747;27;20047;-84
2022/03/03 05:56:11;;;;;;;61.92;30.98;;;-0.80;99.90;;;;;;5096061;27;20043;-84
2022/03/03 05:58:42;;;;;;;69.50;32.72;;;-0.80;99.90;;;;;;5087143;27;20043;-84
2022/03/03 06:01:10;;;;;;;63.42;31.77;;;-0.80;99.90;;;;;;5081884;27;20522;-84
2022/03/03 06:03:36;;;;;;;67.40;30.75;;;-0.10;99.90;;;;;;5089040;27;20086;-84
2022/03/03 06:06:25;;;;;;;63.92;31.70;;;-0.80;99.90;;;;;;5086614;27;20140;-85
2022/03/03 06:09:08;;;;;;;67.80;32.25;;;-0.80;99.90;;;;;;5091217;27;20058;-83
2022/03/03 06:11:40;;;;;;;60.22;29.83;;;-0.80;99.90;;;;;;5093367;27;20099;-84
2022/03/03 06:14:07;;;;;;;62.25;30.73;;;-0.90;99.90;;;;;;5084504;27;20059;-84
2022/03/03 06:16:35;;;;;;;62.35;30.33;;;-0.90;99.90;;;;;;5083629;27;20046;-84
2022/03/03 06:19:02;;;;;;;67.75;32.20;;;-0.90;99.90;;;;;;5084184;28;20139;-84
2022/03/03 06:21:29;;;;;;;67.88;31.23;;;-0.90;99.90;;;;;;5079995;27;20043;-84
2022/03/03 06:23:55;;;;;;;68.25;32.65;;;-0.90;99.90;;;;;;5086352;27;20077;-84
2022/03/03 06:26:22;;;;;;;63.45;31.23;;;-0.90;99.90;;;;;;5101412;27;20047;-84
2022/03/03 06:28:48;;;;;;;71.53;32.80;;;-0.90;99.90;;;;;;5101984;27;20039;-84
2022/03/03 06:31:14;;;;;;;66.13;32.20;;;-1.00;99.90;;;;;;5083967;27;20040;-84
2022/03/03 06:33:40;;;;;;;68.28;32.50;;;-0.90;99.90;;;;;;5102518;27;20051;-84
2022/03/03 06:36:07;;;;;;;64.80;31.52;;;-0.90;99.90;;;;;;5078742;27;20039;-84
2022/03/03 06:38:33;;;;;;;72.13;33.63;;;-1.20;99.90;;;;;;5098694;27;20045;-84
2022/03/03 06:41:01;;;;;;;64.70;30.88;;;-1.00;99.90;;;;;;5101961;27;21764;-84
2022/03/03 06:43:29;;;;;;;68.45;33.92;;;-1.00;99.90;;;;;;5100105;27;20153;-84
2022/03/03 06:45:56;;;;;;;64.13;32.05;;;-1.00;99.90;;;;;;5088075;27;20123;-84
2022/03/03 06:48:22;;;;;;;71.47;33.67;;;-0.90;99.90;;;;;;5102325;27;20499;-84
2022/03/03 06:50:51;;;;;;;63.90;33.20;;;-0.90;99.90;;;;;;5084268;27;20068;-84
2022/03/03 06:53:25;;;;;;;70.75;33.28;;;-1.00;99.90;;;;;;5083539;27;20058;-84
2022/03/03 06:55:54;;;;;;;66.88;32.88;;;0.50;99.90;;;;;;5097643;27;20027;-84
2022/03/03 06:58:25;;;;;;;68.10;33.65;;;-0.90;99.90;;;;;;5092379;27;20035;-84
2022/03/03 07:00:52;;;;;;;70.30;33.47;;;-0.80;99.90;;;;;;5105531;27;20066;-83
2022/03/03 07:03:21;;;;;;;70.13;33.42;;;0.30;99.90;;;;;;5082510;27;20070;-83
2022/03/03 07:05:51;;;;;;;69.40;32.22;;;-0.70;99.90;;;;;;5091153;27;20039;-84
2022/03/03 07:08:20;;;;;;;67.38;33.25;;;-0.70;99.90;;;;;;5084827;27;20129;-84
2022/03/03 07:10:49;;;;;;;65.20;32.85;;;-0.50;99.90;;;;;;5099617;27;20074;-84
2022/03/03 07:13:19;;;;;;;71.10;33.15;;;-0.10;99.90;;;;;;5096130;27;20039;-85
2022/03/03 07:15:54;;;;;;;72.82;32.47;;;0.40;99.90;;;;;;5093003;27;20372;-84
2022/03/03 07:18:35;;;;;;;65.43;32.78;;;0.70;99.90;;;;;;5117420;27;20038;-84
2022/03/03 07:21:30;;;;;;;59.08;30.92;;;1.00;99.90;;;;;;5123803;27;20042;-84
2022/03/03 07:24:03;;;;;;;66.38;30.90;;;1.30;99.90;;;;;;5102532;27;20526;-84
2022/03/03 07:26:32;;;;;;;59.70;30.50;;;1.90;99.90;;;;;;5107445;27;20562;-84
2022/03/03 07:29:01;;;;;;;55.78;28.08;;;2.80;99.90;;;;;;5125907;27;20039;-84
2022/03/03 07:31:29;;;;;;;60.60;29.70;;;3.10;99.90;;;;;;5108580;27;20238;-84
2022/03/03 07:34:01;;;;;;;53.33;28.15;;;3.90;99.90;;;;;;5123810;27;20035;-84
2022/03/03 07:36:32;;;;;;;55.25;28.33;;;4.70;99.90;;;;;;5122599;27;20047;-84
2022/03/03 07:39:00;;;;;;;52.25;27.80;;;5.40;99.90;;;;;;5108858;27;20538;-84
2022/03/03 07:41:28;;;;;;;49.22;26.85;;;6.10;99.90;;;;;;5125397;27;20126;-83
2022/03/03 07:43:55;;;;;;;55.70;26.48;;;7.20;99.90;;;;;;5124782;27;20118;-83
2022/03/03 07:46:22;;;;;;;48.17;25.58;;;6.80;99.90;;;;;;5106067;27;20054;-83
2022/03/03 07:48:50;;;;;;;50.33;27.38;;;7.00;99.90;;;;;;5108008;28;20074;-84
2022/03/03 07:51:18;;;;;;;46.63;27.08;;;7.60;99.90;;;;;;5098976;27;20396;-83
2022/03/03 07:53:44;;;;;;;44.05;25.60;;;8.00;99.90;;;;;;5086336;28;20093;-82
2022/03/03 07:56:18;;;;;;;46.20;26.88;;;7.80;99.90;;;;;;5111344;27;20519;-83
2022/03/03 07:58:45;;;;;;;50.15;25.83;;;7.20;99.90;;;;;;5101691;27;20047;-83
2022/03/03 08:01:17;;;;;;;50.75;28.05;;;7.20;99.90;;;;;;5099270;27;20069;-82
2022/03/03 08:03:45;;;;;;;46.83;26.92;;;7.40;99.90;;;;;;5107101;27;20095;-84
2022/03/03 08:06:13;;;;;;;50.30;28.45;;;7.70;99.90;;;;;;5118493;27;20047;-83
2022/03/03 08:08:39;;;;;;;45.55;26.10;;;8.00;99.90;;;;;;5111632;27;20076;-85
2022/03/03 08:11:07;;;;;;;45.67;25.83;;;9.20;99.90;;;;;;5113402;27;20038;-84
2022/03/03 08:13:34;;;;;;;46.35;25.77;;;9.00;99.90;;;;;;5130501;27;20058;-84
2022/03/03 08:16:00;;;;;;;48.75;26.80;;;9.60;99.90;;;;;;5128576;27;20038;-83
2022/03/03 08:18:35;;;;;;;50.35;26.85;;;10.20;99.90;;;;;;5102147;27;20047;-84
2022/03/03 08:21:05;;;;;;;45.17;27.02;;;9.20;99.90;;;;;;5108014;27;20688;-83
2022/03/03 08:23:32;;;;;;;45.63;26.00;;;8.00;99.90;;;;;;5113031;27;20513;-83
2022/03/03 08:26:02;;;;;;;48.25;28.00;;;7.20;99.90;;;;;;5114217;27;20034;-84
2022/03/03 08:28:29;;;;;;;51.40;28.05;;;6.20;99.90;;;;;;5113050;27;20192;-83
2022/03/03 08:31:04;;;;;;;52.30;28.17;;;5.80;99.90;;;;;;5099613;27;20039;-83
2022/03/03 08:33:52;;;;;;;48.88;28.15;;;5.40;99.90;;;;;;5121214;27;20047;-83
2022/03/03 08:36:35;;;;;;;48.97;27.65;;;5.20;99.90;;;;;;5128621;27;20041;-83
2022/03/03 08:39:06;;;;;;;49.63;28.13;;;5.00;99.90;;;;;;5112635;27;20046;-83
2022/03/03 08:41:36;;;;;;;47.10;26.88;;;4.80;99.90;;;;;;5112659;27;20398;-82
2022/03/03 08:44:03;;;;;;;48.17;26.65;;;4.80;99.90;;;;;;5128816;27;20042;-83
2022/03/03 08:46:33;;;;;;;47.00;24.50;;;4.70;99.90;;;;;;5109262;27;20156;-83
2022/03/03 08:49:00;;;;;;;47.35;26.77;;;4.80;99.90;;;;;;5111556;27;20074;-83
2022/03/03 08:51:29;;;;;;;48.10;26.08;;;5.30;99.90;;;;;;5129537;27;20042;-83
2022/03/03 08:53:55;;;;;;;46.13;25.95;;;4.90;99.90;;;;;;5119143;27;20049;-83
2022/03/03 08:56:22;;;;;;;53.70;27.67;;;4.90;99.90;;;;;;5126990;27;20622;-82
2022/03/03 08:58:53;;;;;;;49.03;26.50;;;4.90;99.90;;;;;;5125977;27;20095;-84
2022/03/03 09:01:18;;;;;;;46.65;26.05;;;4.90;99.90;;;;;;5108070;27;20127;-83
2022/03/03 09:03:44;;;;;;;43.47;24.65;;;5.00;99.90;;;;;;5109666;27;20134;-85
2022/03/03 09:06:15;;;;;;;47.28;25.80;;;5.10;99.90;;;;;;5097661;27;20119;-82
2022/03/03 09:08:41;;;;;;;46.53;24.67;;;5.20;99.90;;;;;;5112283;27;20039;-83
2022/03/03 09:11:07;;;;;;;42.78;25.05;;;5.30;99.90;;;;;;5099320;27;20800;-81
2022/03/03 09:13:33;;;;;;;44.00;24.55;;;5.30;99.90;;;;;;5109449;27;20058;-83
2022/03/03 09:15:59;;;;;;;43.47;25.63;;;5.50;99.90;;;;;;5104308;27;20042;-82
2022/03/03 09:18:25;;;;;;;41.05;23.40;;;5.60;99.90;;;;;;5109101;27;20556;-83
2022/03/03 09:20:50;;;;;;;41.95;24.35;;;5.60;99.90;;;;;;5116878;27;20051;-82
2022/03/03 09:23:16;;;;;;;47.15;25.00;;;5.70;99.90;;;;;;5127944;27;20051;-83
2022/03/03 09:25:43;;;;;;;40.47;23.25;;;5.80;99.90;;;;;;5129005;27;20074;-83
2022/03/03 09:28:10;;;;;;;43.13;23.52;;;6.00;99.90;;;;;;5118987;27;20046;-84
2022/03/03 09:30:37;;;;;;;39.28;22.70;;;6.00;99.90;;;;;;5140107;27;20047;-82
2022/03/03 09:33:04;;;;;;;44.15;24.27;;;6.00;99.90;;;;;;5147893;27;20047;-79
2022/03/03 09:35:30;;;;;;;38.72;22.50;;;6.50;99.90;;;;;;5128440;27;20072;-82
2022/03/03 09:37:56;;;;;;;36.83;22.13;;;6.20;99.90;;;;;;5111219;27;20785;-82
2022/03/03 09:40:22;;;;;;;37.65;20.15;;;6.20;99.90;;;;;;5096981;27;20053;-86
2022/03/03 09:42:59;;;;;;;39.97;21.65;;;6.30;99.90;;;;;;5102272;27;20487;-84
2022/03/03 09:45:26;;;;;;;35.80;19.75;;;6.30;99.90;;;;;;5120471;27;20590;-83
2022/03/03 09:47:55;;;;;;;36.90;21.38;;;6.40;99.90;;;;;;5115596;27;20039;-83
2022/03/03 09:50:23;;;;;;;38.80;21.90;;;6.40;99.90;;;;;;5111499;27;20057;-83
2022/03/03 09:52:49;;;;;;;37.08;20.90;;;6.50;99.90;;;;;;5112783;27;20271;-84
2022/03/03 09:55:16;;;;;;;36.60;20.10;;;6.50;99.90;;;;;;5086481;27;20062;-84
2022/03/03 09:57:41;;;;;;;35.42;20.90;;;6.50;99.90;;;;;;5097970;27;20180;-84
2022/03/03 10:00:09;;;;;;;34.70;20.40;;;7.00;99.90;;;;;;5115702;27;20371;-84
2022/03/03 10:02:59;;;;;;;36.85;19.58;;;6.60;99.90;;;;;;5102832;27;20039;-83
2022/03/03 10:05:32;;;;;;;35.90;20.65;;;6.60;99.90;;;;;;5090782;27;20042;-84
2022/03/03 10:08:04;;;;;;;30.90;18.75;;;6.60;99.90;;;;;;5100502;27;20039;-84
2022/03/03 10:10:30;;;;;;;35.30;20.80;;;6.70;99.90;;;;;;5119064;27;20035;-83
2022/03/03 10:12:57;;;;;;;32.05;19.90;;;6.70;99.90;;;;;;5120955;27;20057;-83
2022/03/03 10:15:28;;;;;;;33.28;20.05;;;6.80;99.90;;;;;;5106985;27;20043;-83
2022/03/03 10:18:05;;;;;;;32.60;18.70;;;6.90;99.90;;;;;;5105756;27;20528;-84
2022/03/03 10:20:45;;;;;;;33.20;20.10;;;7.00;99.90;;;;;;5110952;27;20043;-83
2022/03/03 10:23:11;;;;;;;26.35;17.20;;;7.00;99.90;;;;;;5103919;27;20122;-83
2022/03/03 10:25:40;;;;;;;31.23;18.65;;;7.10;99.90;;;;;;5122107;27;20154;-82
2022/03/03 10:28:15;;;;;;;28.52;17.55;;;7.20;99.90;;;;;;5085230;27;20110;-83
2022/03/03 10:31:22;;;;;;;32.25;17.40;;;7.30;99.90;;;;;;5102825;27;20046;-83
2022/03/03 10:33:51;;;;;;;29.60;16.90;;;7.40;99.90;;;;;;5099186;27;20041;-82
2022/03/03 10:36:23;;;;;;;26.48;15.52;;;7.50;99.90;;;;;;5112329;27;20065;-81
2022/03/03 10:38:57;;;;;;;28.05;16.40;;;7.60;99.90;;;;;;5099219;27;20447;-82
2022/03/03 10:41:28;;;;;;;28.08;17.17;;;7.60;99.90;;;;;;5086843;27;20452;-83
2022/03/03 10:43:53;;;;;;;26.48;15.82;;;7.60;99.90;;;;;;5115080;27;20047;-82
2022/03/03 10:46:19;;;;;;;32.42;16.67;;;7.70;99.90;;;;;;5085477;27;20092;-81
2022/03/03 10:48:45;;;;;;;26.00;15.35;;;7.70;99.90;;;;;;5119074;27;20035;-84
2022/03/03 10:51:14;;;;;;;26.45;15.95;;;7.70;99.90;;;;;;5111053;27;20046;-83
2022/03/03 10:53:42;;;;;;;25.73;15.52;;;7.80;99.90;;;;;;5119071;27;20047;-82
2022/03/03 10:56:17;;;;;;;26.63;14.50;;;7.70;99.90;;;;;;5102916;27;20564;-81
2022/03/03 10:58:45;;;;;;;27.17;16.45;;;7.80;99.90;;;;;;5093081;27;20237;-83
2022/03/03 11:01:12;;;;;;;25.45;15.27;;;7.80;99.90;;;;;;5113864;27;20447;-83
2022/03/03 11:03:39;;;;;;;24.08;15.02;;;7.90;99.90;;;;;;5124864;27;20169;-82
2022/03/03 11:06:05;;;;;;;25.80;15.85;;;8.00;99.90;;;;;;5114248;27;20057;-83
2022/03/03 11:08:31;;;;;;;27.23;15.55;;;8.00;99.90;;;;;;5123116;27;20039;-83
2022/03/03 11:10:57;;;;;;;26.05;15.57;;;8.10;99.90;;;;;;5101279;27;20038;-82
2022/03/03 11:13:24;;;;;;;28.35;16.60;;;8.20;99.90;;;;;;5075112;27;20051;-83
2022/03/03 11:15:52;;;;;;;28.05;15.88;;;8.20;99.90;;;;;;5090569;28;20047;-83
2022/03/03 11:18:19;;;;;;;25.73;15.20;;;8.30;99.90;;;;;;5095443;27;20043;-82
2022/03/03 11:20:51;;;;;;;24.20;14.25;;;8.30;99.90;;;;;;5089326;28;20537;-82
2022/03/03 11:23:17;;;;;;;27.27;14.95;;;8.40;98.90;;;;;;5092273;27;20050;-84
2022/03/03 11:25:48;;;;;;;24.63;14.95;;;8.40;98.90;;;;;;5102435;27;20126;-85
2022/03/03 11:28:15;;;;;;;25.27;15.38;;;8.50;99.60;;;;;;5108335;27;20497;-85
2022/03/03 11:30:46;;;;;;;24.08;14.68;;;8.90;99.90;;;;;;5090909;27;20120;-84
2022/03/03 11:33:33;;;;;;;;;;;8.70;99.90;;;;;;5096125;27;20507;-85
2022/03/03 11:36:04;;;;;;;23.48;15.13;;;8.70;98.70;;;;;;5093942;27;20013;-83
2022/03/03 11:38:44;;;;;;;23.85;13.63;;;8.80;98.20;;;;;;5111452;27;20061;-85
2022/03/03 11:41:10;;;;;;;24.67;14.82;;;8.80;98.50;;;;;;5092335;27;20193;-83
2022/03/03 11:47:45;;;;;;;24.80;14.52;;;9.00;99.90;;;;;;4991987;28;20057;-86
2022/03/03 11:50:19;;;;;;;24.70;15.30;;;8.50;99.90;;;;;;5001928;28;20088;-84
2022/03/03 11:53:11;;;;;;;26.10;15.20;;;9.20;99.90;;;;;;5083656;28;20054;-83
2022/03/03 11:55:41;;;;;;;27.13;16.17;;;9.30;98.70;;;;;;5082150;27;20055;-83
2022/03/03 11:58:24;;;;;;;29.23;17.63;;;9.30;99.90;;;;;;5126365;27;20049;-84
2022/03/03 12:01:00;;;;;;;24.98;15.23;;;9.40;99.10;;;;;;5097853;27;20035;-88
2022/03/03 12:03:28;;;;;;;29.65;15.93;;;9.50;99.40;;;;;;5115605;28;20126;-85
2022/03/03 12:06:05;;;;;;;24.88;15.88;;;9.50;99.10;;;;;;5113847;27;20122;-83
2022/03/03 12:08:33;;;;;;;27.42;15.23;;;9.50;99.90;;;;;;5103241;27;20099;-84
2022/03/03 12:11:04;;;;;;;25.27;15.55;;;9.60;99.70;;;;;;5119361;27;20050;-83
2022/03/03 12:13:42;;;;;;;23.48;14.73;;;9.60;99.40;;;;;;5104413;28;20059;-85
2022/03/03 12:16:13;;;;;;;24.70;15.00;;;9.60;98.50;;;;;;5096778;27;20051;-84
2022/03/03 12:18:41;;;;;;;;;;;9.70;99.50;;;;;;5098184;27;20038;-86
2022/03/03 12:21:36;;;;;;;27.23;16.02;;;10.30;99.90;;;;;;5099447;27;19928;-85
2022/03/03 12:24:32;;;;;;;31.15;17.88;;;9.80;99.90;;;;;;5067312;27;20071;-84
2022/03/03 12:27:04;;;;;;;26.58;17.00;;;9.90;99.90;;;;;;5103986;27;20395;-82
2022/03/03 12:29:39;;;;;;;27.25;15.77;;;9.80;99.90;;;;;;5122946;27;20043;-82
2022/03/03 12:32:41;;;;;;;27.95;16.45;;;9.80;98.80;;;;;;5116912;27;20040;-85
2022/03/03 12:35:09;;;;;;;25.33;16.05;;;9.80;97.60;;;;;;5038779;28;20099;-84
2022/03/03 12:37:46;;;;;;;27.35;16.13;;;9.80;98.90;;;;;;5097958;27;20051;-82
2022/03/03 12:40:17;;;;;;;27.08;15.75;;;9.80;98.40;;;;;;5118870;27;20574;-83
2022/03/03 12:42:44;;;;;;;;;;;9.60;99.20;;;;;;5141643;27;20039;-83
2022/03/03 12:45:13;;;;;;;22.58;13.55;;;9.80;98.70;;;;;;5112456;27;19919;-83